フォルタレザ の空港の天気 - METARとTAF

フォルタレザ/ピント・マーティンズ国際空港 ( SBFZ / FOR ) - ブラジル セアラー州フォルタレザ
飛行場実況気象(Metar)
観測時間09/22 21:00 BRT (09/23 00:00 UTC)
風向・風速東 3m/s
視程10km以上
天気現象
少しの雲 雲底高度 610m
気温26℃
湿度84%
気圧1013hPa
METARSBFZ 230000Z 08006KT 9999 FEW020 26/23 Q1013
過去の天気等 Google飛行場航空写真 Wunderground天気予報

過去48時間のMETAR

飛行場予報(TAF)
発表時間: 9/22 18:00 BRT (9/22 21:00 UTC)
予報対象時間: 22日21時 BRT ~ 23日21時 BRT
風向・風速東 5m/s
視程10km以上
少しの雲 雲底高度 460m
23日5時 BRT ~ 23日7時 BRT に徐々に
風向・風速南南東 6m/s
全天の8割程度の雲 雲底高度 760m
23日11時 BRT ~ 23日13時 BRT に徐々に
風向・風速東 4m/s
TAF SBFZ 222100Z 2300/2324 09010KT 9999 FEW015 TX30/2316Z TN27/2323Z
BECMG 2308/2310 15012KT BKN025
BECMG 2314/2316 10008KT RMK PGY